sensor_id;sensor_type;location;lat;lon;timestamp;P1;durP1;ratioP1;P2;durP2;ratioP2
15982;SDS011;14442;50.196;8.096;2023-04-24T00:02:03;3.00;;;1.77;;
15982;SDS011;14442;50.196;8.096;2023-04-24T00:04:33;4.07;;;2.23;;
15982;SDS011;14442;50.196;8.096;2023-04-24T00:07:00;3.33;;;1.80;;
15982;SDS011;14442;50.196;8.096;2023-04-24T00:09:26;3.03;;;1.80;;
15982;SDS011;14442;50.196;8.096;2023-04-24T00:11:53;2.93;;;1.83;;
15982;SDS011;14442;50.196;8.096;2023-04-24T00:14:21;3.87;;;1.80;;
15982;SDS011;14442;50.196;8.096;2023-04-24T00:16:47;2.07;;;1.73;;
15982;SDS011;14442;50.196;8.096;2023-04-24T00:19:14;2.93;;;1.80;;
15982;SDS011;14442;50.196;8.096;2023-04-24T00:21:42;3.50;;;1.60;;
15982;SDS011;14442;50.196;8.096;2023-04-24T00:24:09;3.07;;;1.57;;
15982;SDS011;14442;50.196;8.096;2023-04-24T00:26:36;1.57;;;1.30;;
15982;SDS011;14442;50.196;8.096;2023-04-24T00:29:02;3.50;;;1.57;;
15982;SDS011;14442;50.196;8.096;2023-04-24T00:31:29;2.43;;;1.40;;
15982;SDS011;14442;50.196;8.096;2023-04-24T00:33:56;2.40;;;1.43;;
15982;SDS011;14442;50.196;8.096;2023-04-24T00:36:22;2.80;;;1.50;;
15982;SDS011;14442;50.196;8.096;2023-04-24T00:38:51;2.13;;;1.50;;
15982;SDS011;14442;50.196;8.096;2023-04-24T00:41:18;2.77;;;1.63;;
15982;SDS011;14442;50.196;8.096;2023-04-24T00:43:45;2.90;;;1.23;;
15982;SDS011;14442;50.196;8.096;2023-04-24T00:46:12;1.73;;;1.17;;
15982;SDS011;14442;50.196;8.096;2023-04-24T00:48:39;2.93;;;1.67;;
15982;SDS011;14442;50.196;8.096;2023-04-24T00:51:06;1.73;;;1.13;;
15982;SDS011;14442;50.196;8.096;2023-04-24T00:53:33;2.00;;;1.10;;
15982;SDS011;14442;50.196;8.096;2023-04-24T00:56:01;1.63;;;1.10;;
15982;SDS011;14442;50.196;8.096;2023-04-24T00:58:28;1.30;;;1.10;;
15982;SDS011;14442;50.196;8.096;2023-04-24T01:00:55;1.57;;;1.27;;
15982;SDS011;14442;50.196;8.096;2023-04-24T01:03:24;2.60;;;0.97;;
15982;SDS011;14442;50.196;8.096;2023-04-24T01:05:54;1.83;;;1.27;;
15982;SDS011;14442;50.196;8.096;2023-04-24T01:08:21;0.93;;;0.70;;
15982;SDS011;14442;50.196;8.096;2023-04-24T01:10:49;1.47;;;0.90;;
15982;SDS011;14442;50.196;8.096;2023-04-24T01:13:19;1.23;;;1.10;;
15982;SDS011;14442;50.196;8.096;2023-04-24T01:15:46;1.17;;;0.93;;
15982;SDS011;14442;50.196;8.096;2023-04-24T01:18:13;1.60;;;1.07;;
15982;SDS011;14442;50.196;8.096;2023-04-24T01:20:41;2.43;;;1.10;;
15982;SDS011;14442;50.196;8.096;2023-04-24T01:23:10;1.27;;;1.13;;
15982;SDS011;14442;50.196;8.096;2023-04-24T01:25:37;1.83;;;0.87;;
15982;SDS011;14442;50.196;8.096;2023-04-24T01:28:04;3.33;;;1.00;;
15982;SDS011;14442;50.196;8.096;2023-04-24T01:30:31;1.67;;;0.90;;
15982;SDS011;14442;50.196;8.096;2023-04-24T01:32:58;0.87;;;0.70;;
15982;SDS011;14442;50.196;8.096;2023-04-24T01:35:25;0.67;;;0.67;;
15982;SDS011;14442;50.196;8.096;2023-04-24T01:37:52;1.63;;;0.70;;
15982;SDS011;14442;50.196;8.096;2023-04-24T01:40:20;1.80;;;0.60;;
15982;SDS011;14442;50.196;8.096;2023-04-24T01:42:47;2.63;;;0.73;;
15982;SDS011;14442;50.196;8.096;2023-04-24T01:45:14;1.00;;;0.43;;
15982;SDS011;14442;50.196;8.096;2023-04-24T01:47:41;3.03;;;0.60;;
15982;SDS011;14442;50.196;8.096;2023-04-24T01:50:08;0.93;;;0.60;;
15982;SDS011;14442;50.196;8.096;2023-04-24T01:52:35;0.50;;;0.50;;
15982;SDS011;14442;50.196;8.096;2023-04-24T01:55:02;1.20;;;0.50;;
15982;SDS011;14442;50.196;8.096;2023-04-24T01:57:31;1.07;;;0.70;;
15982;SDS011;14442;50.196;8.096;2023-04-24T01:59:58;1.03;;;0.73;;
15982;SDS011;14442;50.196;8.096;2023-04-24T02:02:25;1.50;;;0.50;;
15982;SDS011;14442;50.196;8.096;2023-04-24T02:04:53;3.20;;;0.67;;
15982;SDS011;14442;50.196;8.096;2023-04-24T02:07:20;1.07;;;0.47;;
15982;SDS011;14442;50.196;8.096;2023-04-24T02:09:46;2.13;;;0.73;;
15982;SDS011;14442;50.196;8.096;2023-04-24T02:12:13;0.73;;;0.40;;
15982;SDS011;14442;50.196;8.096;2023-04-24T02:14:41;0.70;;;0.43;;
15982;SDS011;14442;50.196;8.096;2023-04-24T02:17:08;0.60;;;0.40;;
15982;SDS011;14442;50.196;8.096;2023-04-24T02:19:38;0.87;;;0.63;;
15982;SDS011;14442;50.196;8.096;2023-04-24T02:22:05;0.47;;;0.40;;
15982;SDS011;14442;50.196;8.096;2023-04-24T02:24:31;0.93;;;0.40;;
15982;SDS011;14442;50.196;8.096;2023-04-24T02:26:58;0.77;;;0.40;;
15982;SDS011;14442;50.196;8.096;2023-04-24T02:29:25;1.40;;;0.40;;
15982;SDS011;14442;50.196;8.096;2023-04-24T02:31:53;1.60;;;0.33;;
15982;SDS011;14442;50.196;8.096;2023-04-24T02:34:19;0.97;;;0.33;;
15982;SDS011;14442;50.196;8.096;2023-04-24T02:36:46;1.47;;;0.40;;
15982;SDS011;14442;50.196;8.096;2023-04-24T02:39:13;0.80;;;0.40;;
15982;SDS011;14442;50.196;8.096;2023-04-24T02:41:41;0.67;;;0.40;;
15982;SDS011;14442;50.196;8.096;2023-04-24T02:44:08;0.50;;;0.30;;
15982;SDS011;14442;50.196;8.096;2023-04-24T02:46:34;0.73;;;0.50;;
15982;SDS011;14442;50.196;8.096;2023-04-24T02:49:02;0.40;;;0.40;;
15982;SDS011;14442;50.196;8.096;2023-04-24T02:51:29;0.60;;;0.40;;
15982;SDS011;14442;50.196;8.096;2023-04-24T02:53:56;1.13;;;0.30;;
15982;SDS011;14442;50.196;8.096;2023-04-24T02:56:22;4.53;;;0.60;;
15982;SDS011;14442;50.196;8.096;2023-04-24T02:58:49;0.50;;;0.30;;
15982;SDS011;14442;50.196;8.096;2023-04-24T03:01:16;0.70;;;0.50;;
15982;SDS011;14442;50.196;8.096;2023-04-24T03:03:42;1.70;;;0.30;;
15982;SDS011;14442;50.196;8.096;2023-04-24T03:06:10;0.80;;;0.33;;
15982;SDS011;14442;50.196;8.096;2023-04-24T03:08:37;0.30;;;0.30;;
15982;SDS011;14442;50.196;8.096;2023-04-24T03:11:04;0.30;;;0.30;;
15982;SDS011;14442;50.196;8.096;2023-04-24T03:13:30;0.20;;;0.20;;
15982;SDS011;14442;50.196;8.096;2023-04-24T03:15:57;0.27;;;0.27;;
15982;SDS011;14442;50.196;8.096;2023-04-24T03:18:24;0.83;;;0.30;;
15982;SDS011;14442;50.196;8.096;2023-04-24T03:20:51;0.83;;;0.20;;
15982;SDS011;14442;50.196;8.096;2023-04-24T03:23:19;0.77;;;0.40;;
15982;SDS011;14442;50.196;8.096;2023-04-24T03:25:46;1.00;;;0.30;;
15982;SDS011;14442;50.196;8.096;2023-04-24T03:28:13;0.23;;;0.20;;
15982;SDS011;14442;50.196;8.096;2023-04-24T03:30:40;1.03;;;0.20;;
15982;SDS011;14442;50.196;8.096;2023-04-24T03:33:06;0.27;;;0.27;;
15982;SDS011;14442;50.196;8.096;2023-04-24T03:35:33;0.30;;;0.20;;
15982;SDS011;14442;50.196;8.096;2023-04-24T03:38:01;0.30;;;0.30;;
15982;SDS011;14442;50.196;8.096;2023-04-24T03:40:30;2.13;;;0.30;;
15982;SDS011;14442;50.196;8.096;2023-04-24T03:42:58;0.30;;;0.30;;
15982;SDS011;14442;50.196;8.096;2023-04-24T03:45:25;0.30;;;0.30;;
15982;SDS011;14442;50.196;8.096;2023-04-24T03:47:51;0.70;;;0.40;;
15982;SDS011;14442;50.196;8.096;2023-04-24T03:50:18;0.60;;;0.30;;
15982;SDS011;14442;50.196;8.096;2023-04-24T03:52:45;0.97;;;0.30;;
15982;SDS011;14442;50.196;8.096;2023-04-24T03:55:11;1.03;;;0.20;;
15982;SDS011;14442;50.196;8.096;2023-04-24T03:57:40;0.53;;;0.30;;
15982;SDS011;14442;50.196;8.096;2023-04-24T04:00:07;0.20;;;0.20;;
15982;SDS011;14442;50.196;8.096;2023-04-24T04:02:35;0.20;;;0.20;;
15982;SDS011;14442;50.196;8.096;2023-04-24T04:05:01;0.30;;;0.30;;
15982;SDS011;14442;50.196;8.096;2023-04-24T04:07:28;0.50;;;0.30;;
15982;SDS011;14442;50.196;8.096;2023-04-24T04:09:55;0.40;;;0.20;;
15982;SDS011;14442;50.196;8.096;2023-04-24T04:12:22;0.97;;;0.40;;
15982;SDS011;14442;50.196;8.096;2023-04-24T04:14:50;0.30;;;0.20;;
15982;SDS011;14442;50.196;8.096;2023-04-24T04:17:16;1.90;;;0.20;;
15982;SDS011;14442;50.196;8.096;2023-04-24T04:19:43;0.67;;;0.20;;
15982;SDS011;14442;50.196;8.096;2023-04-24T04:22:10;0.30;;;0.20;;
15982;SDS011;14442;50.196;8.096;2023-04-24T04:24:36;0.37;;;0.30;;
15982;SDS011;14442;50.196;8.096;2023-04-24T04:27:05;0.50;;;0.23;;
15982;SDS011;14442;50.196;8.096;2023-04-24T04:29:33;0.50;;;0.50;;
15982;SDS011;14442;50.196;8.096;2023-04-24T04:32:02;0.50;;;0.50;;
15982;SDS011;14442;50.196;8.096;2023-04-24T04:34:28;0.50;;;0.30;;
15982;SDS011;14442;50.196;8.096;2023-04-24T04:36:56;0.50;;;0.23;;
15982;SDS011;14442;50.196;8.096;2023-04-24T04:39:24;1.17;;;0.30;;
15982;SDS011;14442;50.196;8.096;2023-04-24T04:41:53;0.30;;;0.30;;
15982;SDS011;14442;50.196;8.096;2023-04-24T04:44:19;0.73;;;0.20;;
15982;SDS011;14442;50.196;8.096;2023-04-24T04:46:46;0.10;;;0.10;;
15982;SDS011;14442;50.196;8.096;2023-04-24T04:49:14;0.40;;;0.30;;
15982;SDS011;14442;50.196;8.096;2023-04-24T04:51:41;0.37;;;0.37;;
15982;SDS011;14442;50.196;8.096;2023-04-24T04:54:08;0.43;;;0.20;;
15982;SDS011;14442;50.196;8.096;2023-04-24T04:56:35;0.40;;;0.30;;
15982;SDS011;14442;50.196;8.096;2023-04-24T04:59:01;0.20;;;0.20;;
15982;SDS011;14442;50.196;8.096;2023-04-24T05:01:28;0.20;;;0.20;;
15982;SDS011;14442;50.196;8.096;2023-04-24T05:03:55;0.77;;;0.30;;
15982;SDS011;14442;50.196;8.096;2023-04-24T05:06:23;0.40;;;0.30;;
15982;SDS011;14442;50.196;8.096;2023-04-24T05:08:50;1.10;;;0.30;;
15982;SDS011;14442;50.196;8.096;2023-04-24T05:11:21;0.20;;;0.20;;
15982;SDS011;14442;50.196;8.096;2023-04-24T05:13:48;0.23;;;0.23;;
15982;SDS011;14442;50.196;8.096;2023-04-24T05:16:15;0.77;;;0.20;;
15982;SDS011;14442;50.196;8.096;2023-04-24T05:18:42;1.37;;;0.57;;
15982;SDS011;14442;50.196;8.096;2023-04-24T05:21:08;0.30;;;0.20;;
15982;SDS011;14442;50.196;8.096;2023-04-24T05:23:36;0.57;;;0.30;;
15982;SDS011;14442;50.196;8.096;2023-04-24T05:26:03;0.17;;;0.17;;
15982;SDS011;14442;50.196;8.096;2023-04-24T05:28:30;0.53;;;0.23;;
15982;SDS011;14442;50.196;8.096;2023-04-24T05:30:56;0.30;;;0.20;;
15982;SDS011;14442;50.196;8.096;2023-04-24T05:33:24;0.20;;;0.20;;
15982;SDS011;14442;50.196;8.096;2023-04-24T05:35:50;0.30;;;0.30;;
15982;SDS011;14442;50.196;8.096;2023-04-24T05:38:17;0.20;;;0.20;;
15982;SDS011;14442;50.196;8.096;2023-04-24T05:40:46;0.73;;;0.20;;
15982;SDS011;14442;50.196;8.096;2023-04-24T05:43:12;1.60;;;0.30;;
15982;SDS011;14442;50.196;8.096;2023-04-24T05:45:39;0.20;;;0.20;;
15982;SDS011;14442;50.196;8.096;2023-04-24T05:48:06;0.60;;;0.30;;
15982;SDS011;14442;50.196;8.096;2023-04-24T05:50:33;0.30;;;0.30;;
15982;SDS011;14442;50.196;8.096;2023-04-24T05:52:59;0.30;;;0.30;;
15982;SDS011;14442;50.196;8.096;2023-04-24T05:55:27;0.50;;;0.30;;
15982;SDS011;14442;50.196;8.096;2023-04-24T05:57:55;0.30;;;0.20;;
15982;SDS011;14442;50.196;8.096;2023-04-24T06:00:21;1.67;;;0.20;;
15982;SDS011;14442;50.196;8.096;2023-04-24T06:02:49;0.47;;;0.20;;
15982;SDS011;14442;50.196;8.096;2023-04-24T06:05:16;0.63;;;0.23;;
15982;SDS011;14442;50.196;8.096;2023-04-24T06:07:43;0.20;;;0.20;;
15982;SDS011;14442;50.196;8.096;2023-04-24T06:10:10;0.57;;;0.30;;
15982;SDS011;14442;50.196;8.096;2023-04-24T06:12:37;0.20;;;0.20;;
15982;SDS011;14442;50.196;8.096;2023-04-24T06:15:06;0.30;;;0.30;;
15982;SDS011;14442;50.196;8.096;2023-04-24T06:17:33;0.20;;;0.20;;
15982;SDS011;14442;50.196;8.096;2023-04-24T06:20:00;0.50;;;0.30;;
15982;SDS011;14442;50.196;8.096;2023-04-24T06:22:28;0.93;;;0.10;;
15982;SDS011;14442;50.196;8.096;2023-04-24T06:24:55;0.33;;;0.20;;
15982;SDS011;14442;50.196;8.096;2023-04-24T06:27:22;0.40;;;0.20;;
15982;SDS011;14442;50.196;8.096;2023-04-24T06:29:49;0.80;;;0.40;;
15982;SDS011;14442;50.196;8.096;2023-04-24T06:32:20;0.43;;;0.30;;
15982;SDS011;14442;50.196;8.096;2023-04-24T06:34:47;0.20;;;0.20;;
15982;SDS011;14442;50.196;8.096;2023-04-24T06:37:14;0.20;;;0.20;;
15982;SDS011;14442;50.196;8.096;2023-04-24T06:39:41;0.30;;;0.30;;
15982;SDS011;14442;50.196;8.096;2023-04-24T06:42:07;0.30;;;0.30;;
15982;SDS011;14442;50.196;8.096;2023-04-24T06:44:34;0.20;;;0.20;;
15982;SDS011;14442;50.196;8.096;2023-04-24T06:47:05;0.33;;;0.30;;
15982;SDS011;14442;50.196;8.096;2023-04-24T06:49:33;0.67;;;0.30;;
15982;SDS011;14442;50.196;8.096;2023-04-24T06:52:00;0.20;;;0.20;;
15982;SDS011;14442;50.196;8.096;2023-04-24T06:54:27;0.30;;;0.27;;
15982;SDS011;14442;50.196;8.096;2023-04-24T06:56:54;0.70;;;0.23;;
15982;SDS011;14442;50.196;8.096;2023-04-24T06:59:22;0.30;;;0.30;;
15982;SDS011;14442;50.196;8.096;2023-04-24T07:01:48;0.40;;;0.30;;
15982;SDS011;14442;50.196;8.096;2023-04-24T07:04:16;0.53;;;0.20;;
15982;SDS011;14442;50.196;8.096;2023-04-24T07:06:44;0.30;;;0.30;;
15982;SDS011;14442;50.196;8.096;2023-04-24T07:09:11;0.77;;;0.30;;
15982;SDS011;14442;50.196;8.096;2023-04-24T07:11:41;0.70;;;0.30;;
15982;SDS011;14442;50.196;8.096;2023-04-24T07:14:10;0.20;;;0.20;;
15982;SDS011;14442;50.196;8.096;2023-04-24T07:16:37;0.30;;;0.30;;
15982;SDS011;14442;50.196;8.096;2023-04-24T07:19:04;0.30;;;0.30;;
15982;SDS011;14442;50.196;8.096;2023-04-24T07:21:30;0.30;;;0.30;;
15982;SDS011;14442;50.196;8.096;2023-04-24T07:23:58;0.50;;;0.40;;
15982;SDS011;14442;50.196;8.096;2023-04-24T07:26:25;1.27;;;0.30;;
15982;SDS011;14442;50.196;8.096;2023-04-24T07:28:52;3.53;;;0.50;;
15982;SDS011;14442;50.196;8.096;2023-04-24T07:31:19;4.00;;;1.60;;
15982;SDS011;14442;50.196;8.096;2023-04-24T07:33:46;5.70;;;2.07;;
15982;SDS011;14442;50.196;8.096;2023-04-24T07:36:13;4.00;;;1.60;;
15982;SDS011;14442;50.196;8.096;2023-04-24T07:38:43;2.30;;;1.10;;
15982;SDS011;14442;50.196;8.096;2023-04-24T07:41:12;4.40;;;1.50;;
15982;SDS011;14442;50.196;8.096;2023-04-24T07:43:38;5.57;;;1.50;;
15982;SDS011;14442;50.196;8.096;2023-04-24T07:46:05;5.03;;;1.37;;
15982;SDS011;14442;50.196;8.096;2023-04-24T07:48:32;3.87;;;1.07;;
15982;SDS011;14442;50.196;8.096;2023-04-24T07:50:59;6.13;;;1.30;;
15982;SDS011;14442;50.196;8.096;2023-04-24T07:53:26;5.47;;;1.00;;
15982;SDS011;14442;50.196;8.096;2023-04-24T07:55:53;9.33;;;1.93;;
15982;SDS011;14442;50.196;8.096;2023-04-24T07:58:21;7.00;;;1.23;;
15982;SDS011;14442;50.196;8.096;2023-04-24T08:00:48;8.40;;;1.37;;
15982;SDS011;14442;50.196;8.096;2023-04-24T08:03:15;9.00;;;0.87;;
15982;SDS011;14442;50.196;8.096;2023-04-24T08:05:44;8.70;;;0.87;;
15982;SDS011;14442;50.196;8.096;2023-04-24T08:08:11;4.27;;;0.97;;
15982;SDS011;14442;50.196;8.096;2023-04-24T08:10:37;9.43;;;1.50;;
15982;SDS011;14442;50.196;8.096;2023-04-24T08:13:04;10.80;;;1.40;;
15982;SDS011;14442;50.196;8.096;2023-04-24T08:15:32;8.00;;;1.13;;
15982;SDS011;14442;50.196;8.096;2023-04-24T08:17:59;14.57;;;1.87;;
15982;SDS011;14442;50.196;8.096;2023-04-24T08:20:26;9.80;;;1.33;;
15982;SDS011;14442;50.196;8.096;2023-04-24T08:22:52;11.40;;;1.60;;
15982;SDS011;14442;50.196;8.096;2023-04-24T08:25:19;2.97;;;1.10;;
15982;SDS011;14442;50.196;8.096;2023-04-24T08:27:48;3.23;;;0.80;;
15982;SDS011;14442;50.196;8.096;2023-04-24T08:30:14;7.93;;;1.37;;
15982;SDS011;14442;50.196;8.096;2023-04-24T08:32:42;5.33;;;0.67;;
15982;SDS011;14442;50.196;8.096;2023-04-24T08:35:09;7.27;;;1.30;;
15982;SDS011;14442;50.196;8.096;2023-04-24T08:37:36;4.60;;;1.20;;
15982;SDS011;14442;50.196;8.096;2023-04-24T08:40:04;5.03;;;0.90;;
15982;SDS011;14442;50.196;8.096;2023-04-24T08:42:36;3.60;;;0.97;;
15982;SDS011;14442;50.196;8.096;2023-04-24T08:45:04;9.20;;;1.17;;
15982;SDS011;14442;50.196;8.096;2023-04-24T08:47:31;4.77;;;0.80;;
15982;SDS011;14442;50.196;8.096;2023-04-24T08:50:02;2.13;;;0.77;;
15982;SDS011;14442;50.196;8.096;2023-04-24T08:52:30;3.03;;;0.50;;
15982;SDS011;14442;50.196;8.096;2023-04-24T08:54:59;4.37;;;0.80;;
15982;SDS011;14442;50.196;8.096;2023-04-24T08:57:26;1.63;;;0.73;;
15982;SDS011;14442;50.196;8.096;2023-04-24T08:59:53;2.77;;;0.70;;
15982;SDS011;14442;50.196;8.096;2023-04-24T09:02:21;2.53;;;0.87;;
15982;SDS011;14442;50.196;8.096;2023-04-24T09:04:49;2.83;;;0.60;;
15982;SDS011;14442;50.196;8.096;2023-04-24T09:07:17;2.57;;;0.60;;
15982;SDS011;14442;50.196;8.096;2023-04-24T09:09:45;2.07;;;0.67;;
15982;SDS011;14442;50.196;8.096;2023-04-24T09:12:13;4.93;;;0.93;;
15982;SDS011;14442;50.196;8.096;2023-04-24T09:14:40;4.60;;;0.87;;
15982;SDS011;14442;50.196;8.096;2023-04-24T09:17:10;4.57;;;0.40;;
15982;SDS011;14442;50.196;8.096;2023-04-24T09:19:36;3.33;;;0.60;;
15982;SDS011;14442;50.196;8.096;2023-04-24T09:22:04;3.10;;;0.50;;
15982;SDS011;14442;50.196;8.096;2023-04-24T09:24:33;5.73;;;0.70;;
15982;SDS011;14442;50.196;8.096;2023-04-24T09:27:00;5.10;;;0.90;;
15982;SDS011;14442;50.196;8.096;2023-04-24T09:29:27;2.63;;;0.60;;
15982;SDS011;14442;50.196;8.096;2023-04-24T09:31:54;2.10;;;0.73;;
15982;SDS011;14442;50.196;8.096;2023-04-24T09:34:21;2.90;;;0.60;;
15982;SDS011;14442;50.196;8.096;2023-04-24T09:36:49;4.60;;;0.77;;
15982;SDS011;14442;50.196;8.096;2023-04-24T09:39:16;4.97;;;0.70;;
15982;SDS011;14442;50.196;8.096;2023-04-24T09:41:48;7.83;;;0.80;;
15982;SDS011;14442;50.196;8.096;2023-04-24T09:44:17;7.53;;;0.40;;
15982;SDS011;14442;50.196;8.096;2023-04-24T09:46:49;2.37;;;0.63;;
15982;SDS011;14442;50.196;8.096;2023-04-24T09:49:21;3.57;;;0.63;;
15982;SDS011;14442;50.196;8.096;2023-04-24T09:51:49;6.57;;;1.03;;
15982;SDS011;14442;50.196;8.096;2023-04-24T09:54:17;4.20;;;0.50;;
15982;SDS011;14442;50.196;8.096;2023-04-24T09:56:47;3.80;;;0.60;;
15982;SDS011;14442;50.196;8.096;2023-04-24T09:59:15;2.67;;;0.70;;
15982;SDS011;14442;50.196;8.096;2023-04-24T10:01:44;5.10;;;0.63;;
15982;SDS011;14442;50.196;8.096;2023-04-24T10:04:17;2.33;;;0.63;;
15982;SDS011;14442;50.196;8.096;2023-04-24T10:06:45;3.30;;;0.60;;
15982;SDS011;14442;50.196;8.096;2023-04-24T10:09:13;5.27;;;0.50;;
15982;SDS011;14442;50.196;8.096;2023-04-24T10:11:41;8.00;;;0.40;;
15982;SDS011;14442;50.196;8.096;2023-04-24T10:14:11;7.03;;;0.97;;
15982;SDS011;14442;50.196;8.096;2023-04-24T10:16:39;7.93;;;0.83;;
15982;SDS011;14442;50.196;8.096;2023-04-24T10:19:06;6.90;;;0.60;;
15982;SDS011;14442;50.196;8.096;2023-04-24T10:21:34;7.47;;;1.10;;
15982;SDS011;14442;50.196;8.096;2023-04-24T10:24:02;4.33;;;0.90;;
15982;SDS011;14442;50.196;8.096;2023-04-24T10:26:31;5.10;;;0.60;;
15982;SDS011;14442;50.196;8.096;2023-04-24T10:28:58;6.87;;;0.80;;
15982;SDS011;14442;50.196;8.096;2023-04-24T10:31:27;2.13;;;0.50;;
15982;SDS011;14442;50.196;8.096;2023-04-24T10:33:56;5.87;;;0.83;;
15982;SDS011;14442;50.196;8.096;2023-04-24T10:36:24;3.80;;;0.53;;
15982;SDS011;14442;50.196;8.096;2023-04-24T10:38:53;2.63;;;0.60;;
15982;SDS011;14442;50.196;8.096;2023-04-24T10:41:21;3.93;;;0.50;;
15982;SDS011;14442;50.196;8.096;2023-04-24T10:44:03;8.93;;;0.50;;
15982;SDS011;14442;50.196;8.096;2023-04-24T10:46:32;5.60;;;0.70;;
15982;SDS011;14442;50.196;8.096;2023-04-24T10:48:59;1.90;;;0.33;;
15982;SDS011;14442;50.196;8.096;2023-04-24T10:51:42;2.80;;;0.70;;
15982;SDS011;14442;50.196;8.096;2023-04-24T10:54:21;3.30;;;0.50;;
15982;SDS011;14442;50.196;8.096;2023-04-24T10:56:49;3.17;;;0.50;;
15982;SDS011;14442;50.196;8.096;2023-04-24T10:59:23;3.83;;;0.40;;
15982;SDS011;14442;50.196;8.096;2023-04-24T11:01:53;2.70;;;0.40;;
15982;SDS011;14442;50.196;8.096;2023-04-24T11:04:30;4.33;;;0.50;;
15982;SDS011;14442;50.196;8.096;2023-04-24T11:07:00;1.60;;;0.30;;
15982;SDS011;14442;50.196;8.096;2023-04-24T11:09:27;2.93;;;0.23;;
15982;SDS011;14442;50.196;8.096;2023-04-24T11:12:02;4.53;;;0.67;;
15982;SDS011;14442;50.196;8.096;2023-04-24T11:14:31;1.87;;;0.40;;
15982;SDS011;14442;50.196;8.096;2023-04-24T11:17:31;2.37;;;0.37;;
15982;SDS011;14442;50.196;8.096;2023-04-24T11:20:02;1.70;;;0.40;;
15982;SDS011;14442;50.196;8.096;2023-04-24T11:22:31;1.07;;;0.30;;
15982;SDS011;14442;50.196;8.096;2023-04-24T11:25:01;1.53;;;0.30;;
15982;SDS011;14442;50.196;8.096;2023-04-24T11:27:29;1.10;;;0.33;;
15982;SDS011;14442;50.196;8.096;2023-04-24T11:30:00;1.37;;;0.40;;
15982;SDS011;14442;50.196;8.096;2023-04-24T11:32:29;3.00;;;0.30;;
15982;SDS011;14442;50.196;8.096;2023-04-24T11:35:02;0.93;;;0.30;;
15982;SDS011;14442;50.196;8.096;2023-04-24T11:37:33;2.70;;;0.40;;
15982;SDS011;14442;50.196;8.096;2023-04-24T11:40:02;2.87;;;0.50;;
15982;SDS011;14442;50.196;8.096;2023-04-24T11:42:33;2.63;;;0.40;;
15982;SDS011;14442;50.196;8.096;2023-04-24T11:45:00;1.40;;;0.40;;
15982;SDS011;14442;50.196;8.096;2023-04-24T11:47:27;5.57;;;0.80;;
15982;SDS011;14442;50.196;8.096;2023-04-24T11:49:56;4.97;;;0.33;;
15982;SDS011;14442;50.196;8.096;2023-04-24T11:52:22;1.43;;;0.30;;
15982;SDS011;14442;50.196;8.096;2023-04-24T11:54:49;2.23;;;0.50;;
15982;SDS011;14442;50.196;8.096;2023-04-24T11:57:16;4.43;;;0.40;;
15982;SDS011;14442;50.196;8.096;2023-04-24T11:59:44;4.27;;;0.63;;
15982;SDS011;14442;50.196;8.096;2023-04-24T12:02:19;2.37;;;0.60;;
15982;SDS011;14442;50.196;8.096;2023-04-24T12:04:47;3.57;;;0.50;;
15982;SDS011;14442;50.196;8.096;2023-04-24T12:07:15;3.03;;;0.50;;
15982;SDS011;14442;50.196;8.096;2023-04-24T12:09:42;3.20;;;1.10;;
15982;SDS011;14442;50.196;8.096;2023-04-24T12:12:10;2.07;;;0.43;;
15982;SDS011;14442;50.196;8.096;2023-04-24T12:14:44;2.73;;;0.40;;
15982;SDS011;14442;50.196;8.096;2023-04-24T12:17:13;3.93;;;0.90;;
15982;SDS011;14442;50.196;8.096;2023-04-24T12:19:44;2.63;;;0.50;;
15982;SDS011;14442;50.196;8.096;2023-04-24T12:22:12;2.77;;;0.50;;
15982;SDS011;14442;50.196;8.096;2023-04-24T12:24:59;2.30;;;0.53;;
15982;SDS011;14442;50.196;8.096;2023-04-24T12:27:29;1.23;;;0.30;;
15982;SDS011;14442;50.196;8.096;2023-04-24T12:29:58;2.47;;;0.90;;
15982;SDS011;14442;50.196;8.096;2023-04-24T12:32:25;0.80;;;0.30;;
15982;SDS011;14442;50.196;8.096;2023-04-24T12:34:52;3.53;;;0.77;;
15982;SDS011;14442;50.196;8.096;2023-04-24T12:37:21;1.50;;;0.80;;
15982;SDS011;14442;50.196;8.096;2023-04-24T12:40:00;4.80;;;0.60;;
15982;SDS011;14442;50.196;8.096;2023-04-24T12:42:28;2.70;;;0.63;;
15982;SDS011;14442;50.196;8.096;2023-04-24T12:44:56;3.93;;;0.90;;
15982;SDS011;14442;50.196;8.096;2023-04-24T12:47:24;6.60;;;0.70;;
15982;SDS011;14442;50.196;8.096;2023-04-24T12:49:51;3.90;;;0.80;;
15982;SDS011;14442;50.196;8.096;2023-04-24T12:52:18;6.87;;;0.60;;
15982;SDS011;14442;50.196;8.096;2023-04-24T12:54:47;2.13;;;0.50;;
15982;SDS011;14442;50.196;8.096;2023-04-24T12:57:13;0.90;;;0.40;;
15982;SDS011;14442;50.196;8.096;2023-04-24T12:59:40;3.33;;;0.50;;
15982;SDS011;14442;50.196;8.096;2023-04-24T13:02:07;2.20;;;0.33;;
15982;SDS011;14442;50.196;8.096;2023-04-24T13:04:35;2.00;;;0.40;;
15982;SDS011;14442;50.196;8.096;2023-04-24T13:07:01;1.90;;;0.60;;
15982;SDS011;14442;50.196;8.096;2023-04-24T13:09:29;1.07;;;0.40;;
15982;SDS011;14442;50.196;8.096;2023-04-24T13:11:57;1.30;;;0.57;;
15982;SDS011;14442;50.196;8.096;2023-04-24T13:14:25;1.13;;;0.23;;
15982;SDS011;14442;50.196;8.096;2023-04-24T13:16:52;0.43;;;0.40;;
15982;SDS011;14442;50.196;8.096;2023-04-24T13:19:19;1.70;;;0.53;;
15982;SDS011;14442;50.196;8.096;2023-04-24T13:21:45;0.93;;;0.40;;
15982;SDS011;14442;50.196;8.096;2023-04-24T13:24:12;2.50;;;0.40;;
15982;SDS011;14442;50.196;8.096;2023-04-24T13:26:40;2.37;;;0.40;;
15982;SDS011;14442;50.196;8.096;2023-04-24T13:29:08;2.57;;;0.47;;
15982;SDS011;14442;50.196;8.096;2023-04-24T13:31:35;1.80;;;0.50;;
15982;SDS011;14442;50.196;8.096;2023-04-24T13:34:02;1.03;;;0.50;;
15982;SDS011;14442;50.196;8.096;2023-04-24T13:36:29;1.13;;;0.60;;
15982;SDS011;14442;50.196;8.096;2023-04-24T13:38:56;0.63;;;0.40;;
15982;SDS011;14442;50.196;8.096;2023-04-24T13:41:23;1.87;;;0.60;;
15982;SDS011;14442;50.196;8.096;2023-04-24T13:43:50;0.50;;;0.50;;
15982;SDS011;14442;50.196;8.096;2023-04-24T13:46:18;1.37;;;0.40;;
15982;SDS011;14442;50.196;8.096;2023-04-24T13:48:45;0.77;;;0.47;;
15982;SDS011;14442;50.196;8.096;2023-04-24T13:51:11;1.47;;;0.63;;
15982;SDS011;14442;50.196;8.096;2023-04-24T13:53:38;0.30;;;0.30;;
15982;SDS011;14442;50.196;8.096;2023-04-24T13:56:05;1.27;;;0.47;;
15982;SDS011;14442;50.196;8.096;2023-04-24T13:58:32;2.60;;;0.40;;
15982;SDS011;14442;50.196;8.096;2023-04-24T14:00:59;0.47;;;0.37;;
15982;SDS011;14442;50.196;8.096;2023-04-24T14:03:27;0.57;;;0.40;;
15982;SDS011;14442;50.196;8.096;2023-04-24T14:05:54;0.30;;;0.30;;
15982;SDS011;14442;50.196;8.096;2023-04-24T14:08:20;0.50;;;0.33;;
15982;SDS011;14442;50.196;8.096;2023-04-24T14:10:47;0.40;;;0.40;;
15982;SDS011;14442;50.196;8.096;2023-04-24T14:13:14;1.13;;;0.30;;
15982;SDS011;14442;50.196;8.096;2023-04-24T14:15:40;0.57;;;0.30;;
15982;SDS011;14442;50.196;8.096;2023-04-24T14:18:07;0.40;;;0.40;;
15982;SDS011;14442;50.196;8.096;2023-04-24T14:20:35;0.33;;;0.30;;
15982;SDS011;14442;50.196;8.096;2023-04-24T14:23:03;0.40;;;0.40;;
15982;SDS011;14442;50.196;8.096;2023-04-24T14:25:29;0.30;;;0.30;;
15982;SDS011;14442;50.196;8.096;2023-04-24T14:27:56;0.73;;;0.50;;
15982;SDS011;14442;50.196;8.096;2023-04-24T14:30:22;0.30;;;0.30;;
15982;SDS011;14442;50.196;8.096;2023-04-24T14:32:49;0.40;;;0.30;;
15982;SDS011;14442;50.196;8.096;2023-04-24T14:35:16;0.50;;;0.47;;
15982;SDS011;14442;50.196;8.096;2023-04-24T14:37:44;0.40;;;0.40;;
15982;SDS011;14442;50.196;8.096;2023-04-24T14:40:11;1.03;;;0.50;;
15982;SDS011;14442;50.196;8.096;2023-04-24T14:42:37;1.17;;;0.30;;
15982;SDS011;14442;50.196;8.096;2023-04-24T14:45:04;0.20;;;0.20;;
15982;SDS011;14442;50.196;8.096;2023-04-24T14:47:32;8.43;;;1.00;;
15982;SDS011;14442;50.196;8.096;2023-04-24T14:49:59;4.63;;;0.70;;
15982;SDS011;14442;50.196;8.096;2023-04-24T14:52:26;3.47;;;1.00;;